Latest Weather Observations for St Kilda Harbour RMYS

IDV60901

Issued at 10:01 pm EST Tuesday 26 July 2016 (issued every 10 minutes, with the page automatically refreshed every 10 minutes)

About weather observations | Map of Melbourne area stations | Latest observations for Melbourne area | Other Formats
Station Details ID: 086220 Name: ST KILDA HARBOUR - RMYS Lat: -37.86 Lon: 144.96 Height: 6.4 m
Data from the previous 72 hours. | See also: Recent months for locations in Victoria
Date/Time
EST
Temp
°C
App
Temp
°C
Dew
Point
°C
Rel
Hum
%
Delta-T
°C
Wind Press
QNH
hPa
Press
MSL
hPa
Rain since
9am
mm
Dir  Spd
km/h
Gust
km/h
Spd
kts
Gust
kts
26/10:00pm - - - - - N 32 50 17 27 - - -
26/09:31pm - - - - - N 32 50 17 27 - - -
26/09:30pm - - - - - N 32 50 17 27 - - -
26/09:13pm - - - - - N 28 46 15 25 - - -
26/09:00pm - - - - - N 24 35 13 19 - - -
26/08:30pm - - - - - N 26 37 14 20 - - -
26/08:00pm - - - - - N 35 52 19 28 - - -
26/07:40pm - - - - - N 28 46 15 25 - - -
26/07:30pm - - - - - N 28 41 15 22 - - -
26/07:00pm - - - - - N 26 39 14 21 - - -
26/06:30pm - - - - - N 30 44 16 24 - - -
26/06:00pm - - - - - N 26 35 14 19 - - -
26/05:30pm - - - - - N 26 39 14 21 - - -
26/05:02pm - - - - - N 28 48 15 26 - - -
26/05:00pm - - - - - N 30 48 16 26 - - -
26/04:42pm - - - - - N 28 50 15 27 - - -
26/04:30pm - - - - - N 22 41 12 22 - - -
26/04:00pm - - - - - N 20 32 11 17 - - -
26/03:30pm - - - - - NNW 30 43 16 23 - - -
26/03:00pm - - - - - N 26 44 14 24 - - -
26/02:30pm - - - - - NNW 28 37 15 20 - - -
26/02:00pm - - - - - NNW 33 46 18 25 - - -
26/01:30pm - - - - - NNW 35 48 19 26 - - -
26/01:00pm - - - - - NNW 32 41 17 22 - - -
26/12:30pm - - - - - NNW 32 41 17 22 - - -
26/12:00pm - - - - - NNW 37 50 20 27 - - -
26/11:30am - - - - - NNW 39 50 21 27 - - -
26/11:00am - - - - - NNW 35 52 19 28 - - -
26/10:47am - - - - - NNW 28 48 15 26 - - -
26/10:30am - - - - - N 28 43 15 23 - - -
26/10:00am - - - - - N 28 43 15 23 - - -
26/09:30am - - - - - N 30 39 16 21 - - -
26/09:00am - - - - - NNW 24 35 13 19 - - -
26/08:30am - - - - - NNW 22 35 12 19 - - -
26/08:00am - - - - - NNW 24 33 13 18 - - -
26/07:30am - - - - - NNW 24 35 13 19 - - -
26/07:00am - - - - - NNW 20 28 11 15 - - -
26/06:30am - - - - - NNW 22 28 12 15 - - -
26/06:00am - - - - - NNW 22 28 12 15 - - -
26/05:30am - - - - - NNW 22 28 12 15 - - -
26/05:00am - - - - - NNW 20 28 11 15 - - -
26/04:30am - - - - - NNW 22 32 12 17 - - -
26/04:00am - - - - - NW 30 39 16 21 - - -
26/03:30am - - - - - NW 30 39 16 21 - - -
26/03:00am - - - - - NW 30 35 16 19 - - -
26/02:30am - - - - - NW 32 43 17 23 - - -
26/02:00am - - - - - NW 33 43 18 23 - - -
26/01:30am - - - - - NW 28 35 15 19 - - -
26/01:00am - - - - - NW 30 35 16 19 - - -
26/12:30am - - - - - NW 35 43 19 23 - - -
26/12:00am - - - - - WNW 35 44 19 24 - - -
 
Date/Time
EST
Temp
°C
App
Temp
°C
Dew
Point
°C
Rel
Hum
%
Delta-T
°C
Wind Press
QNH
hPa
Press
MSL
hPa
Rain since
9am
mm
Dir  Spd
km/h
Gust
km/h
Spd
kts
Gust
kts
25/11:30pm - - - - - WNW 33 43 18 23 - - -
25/11:00pm - - - - - WNW 41 48 22 26 - - -
25/10:30pm - - - - - WNW 37 46 20 25 - - -
25/10:00pm - - - - - WNW 41 56 22 30 - - -
25/09:30pm - - - - - WNW 44 57 24 31 - - -
25/09:02pm - - - - - WNW 50 70 27 38 - - -
25/09:00pm - - - - - WNW 48 67 26 36 - - -
25/08:30pm - - - - - W 54 80 29 43 - - -
25/08:22pm - - - - - W 44 69 24 37 - - -
25/08:00pm - - - - - WNW 44 59 24 32 - - -
25/07:58pm - - - - - WNW 44 54 24 29 - - -
25/07:30pm - - - - - NW 35 46 19 25 - - -
25/07:00pm - - - - - WNW 39 50 21 27 - - -
25/06:47pm - - - - - W 52 69 28 37 - - -
25/06:30pm - - - - - W 63 95 34 51 - - -
25/06:26pm - - - - - WNW 52 91 28 49 - - -
25/06:25pm - - - - - WNW 48 72 26 39 - - -
25/06:22pm - - - - - NW 43 63 23 34 - - -
25/06:18pm - - - - - NW 41 61 22 33 - - -
25/06:01pm - - - - - NNW 39 59 21 32 - - -
25/06:00pm - - - - - NNW 39 54 21 29 - - -
25/05:30pm - - - - - N 43 65 23 35 - - -
25/05:00pm - - - - - N 41 65 22 35 - - -
25/04:31pm - - - - - N 43 61 23 33 - - -
25/04:30pm - - - - - NNW 44 61 24 33 - - -
25/04:00pm - - - - - NNW 46 67 25 36 - - -
25/03:32pm - - - - - NNW 48 67 26 36 - - -
25/03:30pm - - - - - NNW 48 67 26 36 - - -
25/03:00pm - - - - - NNW 37 56 20 30 - - -
25/02:40pm - - - - - NNW 37 57 20 31 - - -
25/02:30pm - - - - - NNW 41 56 22 30 - - -
25/02:12pm - - - - - NNW 35 59 19 32 - - -
25/02:00pm - - - - - NNW 37 52 20 28 - - -
25/01:30pm - - - - - NNW 41 52 22 28 - - -
25/01:11pm - - - - - NNW 32 52 17 28 - - -
25/01:00pm - - - - - NNW 33 46 18 25 - - -
25/12:30pm - - - - - NW 32 44 17 24 - - -
25/12:00pm - - - - - NW 35 46 19 25 - - -
25/11:30am - - - - - WNW 35 48 19 26 - - -
25/11:00am - - - - - NW 22 30 12 16 - - -
25/10:30am - - - - - WNW 39 52 21 28 - - -
25/10:00am - - - - - NW 35 48 19 26 - - -
25/09:30am - - - - - NW 20 32 11 17 - - -
25/09:00am - - - - - NNW 24 32 13 17 - - -
25/08:30am - - - - - NNW 26 33 14 18 - - -
25/08:00am - - - - - NNW 26 35 14 19 - - -
25/07:30am - - - - - NNW 22 28 12 15 - - -
25/07:00am - - - - - N 24 33 13 18 - - -
25/06:30am - - - - - N 20 28 11 15 - - -
25/06:00am - - - - - N 20 28 11 15 - - -
25/05:30am - - - - - N 20 28 11 15 - - -
25/05:00am - - - - - NNW 26 33 14 18 - - -
25/04:30am - - - - - N 20 28 11 15 - - -
25/04:00am - - - - - N 26 35 14 19 - - -
25/03:30am - - - - - N 24 33 13 18 - - -
25/03:00am - - - - - NNW 28 39 15 21 - - -
25/02:30am - - - - - NNW 28 35 15 19 - - -
25/02:00am - - - - - N 24 32 13 17 - - -
25/01:30am - - - - - N 22 35 12 19 - - -
25/01:00am - - - - - N 20 35 11 19 - - -
25/12:30am - - - - - NNW 26 35 14 19 - - -
25/12:00am - - - - - N 22 32 12 17 - - -
 
Date/Time
EST
Temp
°C
App
Temp
°C
Dew
Point
°C
Rel
Hum
%
Delta-T
°C
Wind Press
QNH
hPa
Press
MSL
hPa
Rain since
9am
mm
Dir  Spd
km/h
Gust
km/h
Spd
kts
Gust
kts
24/11:30pm - - - - - N 22 33 12 18 - - -
24/11:00pm - - - - - N 22 30 12 16 - - -
24/10:30pm - - - - - N 20 35 11 19 - - -
24/10:00pm - - - - - N 17 22 9 12 - - -
24/09:30pm - - - - - N 22 32 12 17 - - -
24/09:00pm - - - - - N 26 35 14 19 - - -
24/08:30pm - - - - - N 24 44 13 24 - - -
24/08:00pm - - - - - N 26 37 14 20 - - -
24/07:35pm - - - - - N 28 46 15 25 - - -
24/07:30pm - - - - - N 26 43 14 23 - - -
24/07:00pm - - - - - N 20 28 11 15 - - -
24/06:30pm - - - - - N 20 33 11 18 - - -
24/06:00pm - - - - - N 28 39 15 21 - - -
24/05:30pm - - - - - NNE 26 39 14 21 - - -
24/05:00pm - - - - - N 26 39 14 21 - - -
24/04:30pm - - - - - N 24 35 13 19 - - -
24/04:00pm - - - - - N 28 43 15 23 - - -
24/03:30pm - - - - - N 32 41 17 22 - - -
24/03:00pm - - - - - N 32 46 17 25 - - -
24/02:30pm - - - - - N 28 43 15 23 - - -
24/02:00pm - - - - - N 32 43 17 23 - - -
24/01:36pm - - - - - N 33 52 18 28 - - -
24/01:30pm - - - - - N 32 48 17 26 - - -
24/01:10pm - - - - - N 32 54 17 29 - - -
24/01:00pm - - - - - N 33 48 18 26 - - -
24/12:39pm - - - - - N 32 56 17 30 - - -
24/12:30pm - - - - - N 32 50 17 27 - - -
24/12:00pm - - - - - NNW 37 54 20 29 - - -
24/11:55am - - - - - NNW 32 50 17 27 - - -
24/11:30am - - - - - NNW 32 48 17 26 - - -
24/11:00am - - - - - N 33 50 18 27 - - -
24/10:36am - - - - - N 33 54 18 29 - - -
24/10:30am - - - - - N 33 46 18 25 - - -
24/10:00am - - - - - N 19 33 10 18 - - -
24/09:30am - - - - - N 15 22 8 12 - - -
24/09:00am - - - - - NNE 15 22 8 12 - - -
24/08:30am - - - - - NNE 11 24 6 13 - - -
24/08:00am - - - - - NNE 13 20 7 11 - - -
24/07:30am - - - - - NNE 15 20 8 11 - - -
24/07:00am - - - - - NNE 15 20 8 11 - - -
24/06:30am - - - - - NNE 15 19 8 10 - - -
24/06:00am - - - - - NNE 13 17 7 9 - - -
24/05:30am - - - - - N 15 22 8 12 - - -
24/05:00am - - - - - N 20 28 11 15 - - -
24/04:30am - - - - - NNW 22 28 12 15 - - -
24/04:00am - - - - - NNW 24 30 13 16 - - -
24/03:30am - - - - - N 22 32 12 17 - - -
24/03:00am - - - - - NNW 20 30 11 16 - - -
24/02:30am - - - - - NNW 19 24 10 13 - - -
24/02:00am - - - - - NNW 19 28 10 15 - - -
24/01:30am - - - - - NNW 17 22 9 12 - - -
24/01:00am - - - - - NNW 15 22 8 12 - - -
24/12:30am - - - - - NNW 17 20 9 11 - - -
24/12:00am - - - - - NNW 17 22 9 12 - - -
 
Date/Time
EST
Temp
°C
App
Temp
°C
Dew
Point
°C
Rel
Hum
%
Delta-T
°C
Wind Press
QNH
hPa
Press
MSL
hPa
Rain since
9am
mm
Dir  Spd
km/h
Gust
km/h
Spd
kts
Gust
kts
23/11:30pm - - - - - NW 17 19 9 10 - - -
23/11:00pm - - - - - NW 17 20 9 11 - - -
23/10:30pm - - - - - WNW 20 24 11 13 - - -

Latest Capital City Observations: Canberra | Sydney | Melbourne | Brisbane | Adelaide | Perth | Hobart | Darwin

Other Formats:

Comma delimited format used in spreadsheet applications
http://www.bom.gov.au/fwo/IDV60901/IDV60901.95864.axf

JavaScript Object Notation format (JSON) in row-major order
http://www.bom.gov.au/fwo/IDV60901/IDV60901.95864.json